sensor_id;sensor_type;location;lat;lon;timestamp;temperature;humidity
20041;DHT22;10181;48.072;9.884;2023-03-11T00:00:30;2.40;99.90
20041;DHT22;10181;48.072;9.884;2023-03-11T00:02:57;2.40;99.90
20041;DHT22;10181;48.072;9.884;2023-03-11T00:05:29;2.40;99.90
20041;DHT22;10181;48.072;9.884;2023-03-11T00:07:55;2.30;99.90
20041;DHT22;10181;48.072;9.884;2023-03-11T00:10:33;2.40;99.90
20041;DHT22;10181;48.072;9.884;2023-03-11T00:12:59;2.30;99.90
20041;DHT22;10181;48.072;9.884;2023-03-11T00:15:26;2.30;99.90
20041;DHT22;10181;48.072;9.884;2023-03-11T00:17:52;2.40;99.90
20041;DHT22;10181;48.072;9.884;2023-03-11T00:20:24;2.30;99.90
20041;DHT22;10181;48.072;9.884;2023-03-11T00:22:51;2.30;99.90
20041;DHT22;10181;48.072;9.884;2023-03-11T00:25:18;2.30;99.90
20041;DHT22;10181;48.072;9.884;2023-03-11T00:27:44;2.30;99.90
20041;DHT22;10181;48.072;9.884;2023-03-11T00:30:11;2.30;99.90
20041;DHT22;10181;48.072;9.884;2023-03-11T00:32:37;2.30;99.90
20041;DHT22;10181;48.072;9.884;2023-03-11T00:35:03;2.30;99.90
20041;DHT22;10181;48.072;9.884;2023-03-11T00:37:29;2.30;99.90
20041;DHT22;10181;48.072;9.884;2023-03-11T00:39:55;2.30;99.90
20041;DHT22;10181;48.072;9.884;2023-03-11T00:42:20;2.20;99.90
20041;DHT22;10181;48.072;9.884;2023-03-11T00:44:46;2.20;99.90
20041;DHT22;10181;48.072;9.884;2023-03-11T00:47:12;2.20;99.90
20041;DHT22;10181;48.072;9.884;2023-03-11T00:49:38;2.20;99.90
20041;DHT22;10181;48.072;9.884;2023-03-11T00:52:04;2.20;99.90
20041;DHT22;10181;48.072;9.884;2023-03-11T00:54:30;2.20;99.90
20041;DHT22;10181;48.072;9.884;2023-03-11T00:56:55;2.10;99.90
20041;DHT22;10181;48.072;9.884;2023-03-11T00:59:21;2.10;99.90
20041;DHT22;10181;48.072;9.884;2023-03-11T01:01:47;2.10;99.90
20041;DHT22;10181;48.072;9.884;2023-03-11T01:04:12;2.10;99.90
20041;DHT22;10181;48.072;9.884;2023-03-11T01:06:38;2.10;99.90
20041;DHT22;10181;48.072;9.884;2023-03-11T01:09:03;2.10;99.90
20041;DHT22;10181;48.072;9.884;2023-03-11T01:11:30;2.10;99.90
20041;DHT22;10181;48.072;9.884;2023-03-11T01:13:55;2.10;99.90
20041;DHT22;10181;48.072;9.884;2023-03-11T01:16:21;2.00;99.90
20041;DHT22;10181;48.072;9.884;2023-03-11T01:18:46;2.00;99.90
20041;DHT22;10181;48.072;9.884;2023-03-11T01:21:12;2.00;99.90
20041;DHT22;10181;48.072;9.884;2023-03-11T01:23:39;2.00;99.90
20041;DHT22;10181;48.072;9.884;2023-03-11T01:26:04;1.90;99.90
20041;DHT22;10181;48.072;9.884;2023-03-11T01:28:30;1.90;99.90
20041;DHT22;10181;48.072;9.884;2023-03-11T01:30:56;1.90;99.90
20041;DHT22;10181;48.072;9.884;2023-03-11T01:33:21;1.80;99.90
20041;DHT22;10181;48.072;9.884;2023-03-11T01:35:47;1.70;99.90
20041;DHT22;10181;48.072;9.884;2023-03-11T01:38:14;1.70;99.90
20041;DHT22;10181;48.072;9.884;2023-03-11T01:40:48;1.70;99.90
20041;DHT22;10181;48.072;9.884;2023-03-11T01:48:45;1.60;99.90
20041;DHT22;10181;48.072;9.884;2023-03-11T01:51:12;1.60;99.90
20041;DHT22;10181;48.072;9.884;2023-03-11T01:53:38;1.60;99.90
20041;DHT22;10181;48.072;9.884;2023-03-11T01:56:04;1.60;99.90
20041;DHT22;10181;48.072;9.884;2023-03-11T01:58:36;1.60;99.90
20041;DHT22;10181;48.072;9.884;2023-03-11T02:01:04;1.50;99.90
20041;DHT22;10181;48.072;9.884;2023-03-11T02:03:32;1.60;99.90
20041;DHT22;10181;48.072;9.884;2023-03-11T02:06:00;1.60;99.90
20041;DHT22;10181;48.072;9.884;2023-03-11T02:08:27;1.60;99.90
20041;DHT22;10181;48.072;9.884;2023-03-11T02:10:55;1.60;99.90
20041;DHT22;10181;48.072;9.884;2023-03-11T02:13:21;1.60;99.90
20041;DHT22;10181;48.072;9.884;2023-03-11T02:15:47;1.50;99.90
20041;DHT22;10181;48.072;9.884;2023-03-11T02:18:14;1.50;99.90
20041;DHT22;10181;48.072;9.884;2023-03-11T02:21:20;1.50;99.90
20041;DHT22;10181;48.072;9.884;2023-03-11T02:29:14;1.50;99.90
20041;DHT22;10181;48.072;9.884;2023-03-11T02:31:41;1.50;99.90
20041;DHT22;10181;48.072;9.884;2023-03-11T02:34:15;1.50;99.90
20041;DHT22;10181;48.072;9.884;2023-03-11T02:36:41;1.50;99.90
20041;DHT22;10181;48.072;9.884;2023-03-11T02:39:08;1.50;99.90
20041;DHT22;10181;48.072;9.884;2023-03-11T02:41:37;1.50;99.90
20041;DHT22;10181;48.072;9.884;2023-03-11T02:44:05;1.50;99.90
20041;DHT22;10181;48.072;9.884;2023-03-11T02:46:31;1.50;99.90
20041;DHT22;10181;48.072;9.884;2023-03-11T02:48:56;1.50;99.90
20041;DHT22;10181;48.072;9.884;2023-03-11T02:51:24;1.50;99.90
20041;DHT22;10181;48.072;9.884;2023-03-11T02:53:52;1.50;99.90
20041;DHT22;10181;48.072;9.884;2023-03-11T02:56:18;1.40;99.90
20041;DHT22;10181;48.072;9.884;2023-03-11T02:58:44;1.40;99.90
20041;DHT22;10181;48.072;9.884;2023-03-11T03:01:10;1.40;99.90
20041;DHT22;10181;48.072;9.884;2023-03-11T03:03:36;1.40;99.90
20041;DHT22;10181;48.072;9.884;2023-03-11T03:06:01;1.40;99.90
20041;DHT22;10181;48.072;9.884;2023-03-11T03:08:27;1.40;99.90
20041;DHT22;10181;48.072;9.884;2023-03-11T03:10:53;1.40;99.90
20041;DHT22;10181;48.072;9.884;2023-03-11T03:13:18;1.40;99.90
20041;DHT22;10181;48.072;9.884;2023-03-11T03:15:44;1.40;99.90
20041;DHT22;10181;48.072;9.884;2023-03-11T03:18:10;1.40;99.90
20041;DHT22;10181;48.072;9.884;2023-03-11T03:20:35;1.30;99.90
20041;DHT22;10181;48.072;9.884;2023-03-11T03:23:01;1.30;99.90
20041;DHT22;10181;48.072;9.884;2023-03-11T03:25:26;1.30;99.90
20041;DHT22;10181;48.072;9.884;2023-03-11T03:27:52;1.30;99.90
20041;DHT22;10181;48.072;9.884;2023-03-11T03:30:18;1.20;99.90
20041;DHT22;10181;48.072;9.884;2023-03-11T03:32:43;1.20;99.90
20041;DHT22;10181;48.072;9.884;2023-03-11T03:35:09;1.20;99.90
20041;DHT22;10181;48.072;9.884;2023-03-11T03:37:36;1.10;99.90
20041;DHT22;10181;48.072;9.884;2023-03-11T03:40:03;1.10;99.90
20041;DHT22;10181;48.072;9.884;2023-03-11T03:42:33;1.10;99.90
20041;DHT22;10181;48.072;9.884;2023-03-11T03:44:59;1.00;99.90
20041;DHT22;10181;48.072;9.884;2023-03-11T03:47:25;0.90;99.90
20041;DHT22;10181;48.072;9.884;2023-03-11T03:49:50;0.90;99.90
20041;DHT22;10181;48.072;9.884;2023-03-11T03:52:16;0.80;99.90
20041;DHT22;10181;48.072;9.884;2023-03-11T03:54:41;0.80;99.90
20041;DHT22;10181;48.072;9.884;2023-03-11T03:57:07;0.80;99.90
20041;DHT22;10181;48.072;9.884;2023-03-11T03:59:33;0.80;99.90
20041;DHT22;10181;48.072;9.884;2023-03-11T04:01:59;0.70;99.90
20041;DHT22;10181;48.072;9.884;2023-03-11T04:04:25;0.70;99.90
20041;DHT22;10181;48.072;9.884;2023-03-11T04:06:50;0.60;99.90
20041;DHT22;10181;48.072;9.884;2023-03-11T04:09:16;0.60;99.90
20041;DHT22;10181;48.072;9.884;2023-03-11T04:11:41;0.50;99.90
20041;DHT22;10181;48.072;9.884;2023-03-11T04:14:07;0.50;99.90
20041;DHT22;10181;48.072;9.884;2023-03-11T04:16:32;0.50;99.90
20041;DHT22;10181;48.072;9.884;2023-03-11T04:18:58;0.50;99.90
20041;DHT22;10181;48.072;9.884;2023-03-11T04:21:24;0.50;99.90
20041;DHT22;10181;48.072;9.884;2023-03-11T04:23:49;0.40;99.90
20041;DHT22;10181;48.072;9.884;2023-03-11T04:26:15;0.40;99.90
20041;DHT22;10181;48.072;9.884;2023-03-11T04:28:41;0.30;99.90
20041;DHT22;10181;48.072;9.884;2023-03-11T04:31:06;0.40;99.90
20041;DHT22;10181;48.072;9.884;2023-03-11T04:33:32;0.40;99.90
20041;DHT22;10181;48.072;9.884;2023-03-11T04:35:58;0.30;99.90
20041;DHT22;10181;48.072;9.884;2023-03-11T04:38:24;0.40;99.90
20041;DHT22;10181;48.072;9.884;2023-03-11T04:40:49;0.40;99.90
20041;DHT22;10181;48.072;9.884;2023-03-11T04:43:15;0.40;99.90
20041;DHT22;10181;48.072;9.884;2023-03-11T04:45:41;0.40;99.90
20041;DHT22;10181;48.072;9.884;2023-03-11T04:48:07;0.40;99.90
20041;DHT22;10181;48.072;9.884;2023-03-11T04:50:33;0.40;99.90
20041;DHT22;10181;48.072;9.884;2023-03-11T04:52:58;0.40;99.90
20041;DHT22;10181;48.072;9.884;2023-03-11T04:55:24;0.40;99.90
20041;DHT22;10181;48.072;9.884;2023-03-11T04:57:50;0.40;99.90
20041;DHT22;10181;48.072;9.884;2023-03-11T05:00:16;0.40;99.90
20041;DHT22;10181;48.072;9.884;2023-03-11T05:02:44;0.30;99.90
20041;DHT22;10181;48.072;9.884;2023-03-11T05:05:10;0.30;99.90
20041;DHT22;10181;48.072;9.884;2023-03-11T05:07:36;0.30;99.90
20041;DHT22;10181;48.072;9.884;2023-03-11T05:10:03;0.20;99.90
20041;DHT22;10181;48.072;9.884;2023-03-11T05:12:28;0.20;99.90
20041;DHT22;10181;48.072;9.884;2023-03-11T05:14:54;0.20;99.90
20041;DHT22;10181;48.072;9.884;2023-03-11T05:17:20;0.20;99.90
20041;DHT22;10181;48.072;9.884;2023-03-11T05:19:45;0.10;99.90
20041;DHT22;10181;48.072;9.884;2023-03-11T05:22:12;0.10;99.90
20041;DHT22;10181;48.072;9.884;2023-03-11T05:24:37;0.10;99.90
20041;DHT22;10181;48.072;9.884;2023-03-11T05:27:04;0.10;99.90
20041;DHT22;10181;48.072;9.884;2023-03-11T05:29:29;0.10;99.90
20041;DHT22;10181;48.072;9.884;2023-03-11T05:31:55;0.00;99.90
20041;DHT22;10181;48.072;9.884;2023-03-11T05:34:21;0.00;99.90
20041;DHT22;10181;48.072;9.884;2023-03-11T05:36:46;0.00;99.90
20041;DHT22;10181;48.072;9.884;2023-03-11T05:39:12;-0.10;99.90
20041;DHT22;10181;48.072;9.884;2023-03-11T05:41:38;-0.10;99.90
20041;DHT22;10181;48.072;9.884;2023-03-11T05:44:04;-0.10;99.90
20041;DHT22;10181;48.072;9.884;2023-03-11T05:46:30;-0.20;99.90
20041;DHT22;10181;48.072;9.884;2023-03-11T05:48:58;-0.20;99.90
20041;DHT22;10181;48.072;9.884;2023-03-11T05:51:24;-0.20;99.90
20041;DHT22;10181;48.072;9.884;2023-03-11T05:53:50;-0.20;99.90
20041;DHT22;10181;48.072;9.884;2023-03-11T05:56:20;-0.20;99.90
20041;DHT22;10181;48.072;9.884;2023-03-11T05:58:47;-0.20;99.90
20041;DHT22;10181;48.072;9.884;2023-03-11T06:01:14;-0.20;99.90
20041;DHT22;10181;48.072;9.884;2023-03-11T06:03:41;-0.20;99.90
20041;DHT22;10181;48.072;9.884;2023-03-11T06:06:08;-0.30;99.90
20041;DHT22;10181;48.072;9.884;2023-03-11T06:08:35;-0.40;99.90
20041;DHT22;10181;48.072;9.884;2023-03-11T06:11:07;-0.30;99.90
20041;DHT22;10181;48.072;9.884;2023-03-11T06:13:34;-0.30;99.90
20041;DHT22;10181;48.072;9.884;2023-03-11T06:16:00;-0.30;99.90
20041;DHT22;10181;48.072;9.884;2023-03-11T06:18:26;-0.30;99.90
20041;DHT22;10181;48.072;9.884;2023-03-11T06:20:53;-0.30;99.90
20041;DHT22;10181;48.072;9.884;2023-03-11T06:23:19;-0.30;99.90
20041;DHT22;10181;48.072;9.884;2023-03-11T06:26:01;-0.30;99.90
20041;DHT22;10181;48.072;9.884;2023-03-11T06:28:28;-0.20;99.90
20041;DHT22;10181;48.072;9.884;2023-03-11T06:30:54;-0.20;99.90
20041;DHT22;10181;48.072;9.884;2023-03-11T06:33:23;-0.20;99.90
20041;DHT22;10181;48.072;9.884;2023-03-11T06:35:59;-0.20;99.90
20041;DHT22;10181;48.072;9.884;2023-03-11T06:38:25;-0.10;99.90
20041;DHT22;10181;48.072;9.884;2023-03-11T06:40:51;-0.10;99.90
20041;DHT22;10181;48.072;9.884;2023-03-11T06:43:17;-0.10;99.90
20041;DHT22;10181;48.072;9.884;2023-03-11T06:45:43;-0.10;99.90
20041;DHT22;10181;48.072;9.884;2023-03-11T06:48:09;-0.10;99.90
20041;DHT22;10181;48.072;9.884;2023-03-11T06:50:35;-0.10;99.90
20041;DHT22;10181;48.072;9.884;2023-03-11T06:53:00;-0.10;99.90
20041;DHT22;10181;48.072;9.884;2023-03-11T06:55:27;-0.10;99.90
20041;DHT22;10181;48.072;9.884;2023-03-11T06:57:53;-0.10;99.90
20041;DHT22;10181;48.072;9.884;2023-03-11T07:00:19;-0.10;99.90
20041;DHT22;10181;48.072;9.884;2023-03-11T07:02:44;-0.10;99.90
20041;DHT22;10181;48.072;9.884;2023-03-11T07:05:10;0.00;99.90
20041;DHT22;10181;48.072;9.884;2023-03-11T07:07:36;0.00;99.90
20041;DHT22;10181;48.072;9.884;2023-03-11T07:10:03;0.00;99.90
20041;DHT22;10181;48.072;9.884;2023-03-11T07:12:29;0.10;99.90
20041;DHT22;10181;48.072;9.884;2023-03-11T07:14:56;0.20;99.90
20041;DHT22;10181;48.072;9.884;2023-03-11T07:17:22;0.10;99.90
20041;DHT22;10181;48.072;9.884;2023-03-11T07:19:48;0.10;99.90
20041;DHT22;10181;48.072;9.884;2023-03-11T07:22:13;0.10;99.90
20041;DHT22;10181;48.072;9.884;2023-03-11T07:24:39;0.10;99.90
20041;DHT22;10181;48.072;9.884;2023-03-11T07:27:05;0.10;99.90
20041;DHT22;10181;48.072;9.884;2023-03-11T07:29:31;0.10;99.90
20041;DHT22;10181;48.072;9.884;2023-03-11T07:31:57;0.10;99.90
20041;DHT22;10181;48.072;9.884;2023-03-11T07:34:23;0.10;99.90
20041;DHT22;10181;48.072;9.884;2023-03-11T07:36:48;0.10;99.90
20041;DHT22;10181;48.072;9.884;2023-03-11T07:39:16;0.10;99.90
20041;DHT22;10181;48.072;9.884;2023-03-11T07:41:42;0.20;99.90
20041;DHT22;10181;48.072;9.884;2023-03-11T07:44:11;0.20;99.90
20041;DHT22;10181;48.072;9.884;2023-03-11T07:46:37;0.20;99.90
20041;DHT22;10181;48.072;9.884;2023-03-11T07:49:02;0.10;99.90
20041;DHT22;10181;48.072;9.884;2023-03-11T07:51:30;0.10;99.90
20041;DHT22;10181;48.072;9.884;2023-03-11T07:53:57;0.10;99.90
20041;DHT22;10181;48.072;9.884;2023-03-11T07:56:27;0.10;99.90
20041;DHT22;10181;48.072;9.884;2023-03-11T07:58:53;0.10;99.90
20041;DHT22;10181;48.072;9.884;2023-03-11T08:01:21;0.20;99.90
20041;DHT22;10181;48.072;9.884;2023-03-11T08:03:49;0.20;99.90
20041;DHT22;10181;48.072;9.884;2023-03-11T08:06:22;0.20;99.90
20041;DHT22;10181;48.072;9.884;2023-03-11T08:08:48;0.20;99.90
20041;DHT22;10181;48.072;9.884;2023-03-11T08:11:15;0.20;99.90
20041;DHT22;10181;48.072;9.884;2023-03-11T08:13:42;0.30;99.90
20041;DHT22;10181;48.072;9.884;2023-03-11T08:16:09;0.30;99.90
20041;DHT22;10181;48.072;9.884;2023-03-11T08:18:35;0.40;99.90
20041;DHT22;10181;48.072;9.884;2023-03-11T08:21:10;0.40;99.90
20041;DHT22;10181;48.072;9.884;2023-03-11T08:23:36;0.40;99.90
20041;DHT22;10181;48.072;9.884;2023-03-11T08:26:06;0.50;99.90
20041;DHT22;10181;48.072;9.884;2023-03-11T08:28:32;0.50;99.90
20041;DHT22;10181;48.072;9.884;2023-03-11T08:30:59;0.50;99.90
20041;DHT22;10181;48.072;9.884;2023-03-11T08:33:24;0.50;99.90
20041;DHT22;10181;48.072;9.884;2023-03-11T08:35:50;0.70;99.90
20041;DHT22;10181;48.072;9.884;2023-03-11T08:38:15;0.80;99.90
20041;DHT22;10181;48.072;9.884;2023-03-11T08:40:41;0.80;99.90
20041;DHT22;10181;48.072;9.884;2023-03-11T08:43:07;1.00;99.90
20041;DHT22;10181;48.072;9.884;2023-03-11T08:45:33;1.60;99.90
20041;DHT22;10181;48.072;9.884;2023-03-11T08:47:59;2.10;99.90
20041;DHT22;10181;48.072;9.884;2023-03-11T08:50:24;1.90;99.90
20041;DHT22;10181;48.072;9.884;2023-03-11T08:52:50;2.20;99.90
20041;DHT22;10181;48.072;9.884;2023-03-11T08:55:17;2.00;99.90
20041;DHT22;10181;48.072;9.884;2023-03-11T08:57:49;2.10;99.90
20041;DHT22;10181;48.072;9.884;2023-03-11T09:00:15;2.20;99.90
20041;DHT22;10181;48.072;9.884;2023-03-11T09:02:41;2.10;99.90
20041;DHT22;10181;48.072;9.884;2023-03-11T09:05:08;2.10;99.90
20041;DHT22;10181;48.072;9.884;2023-03-11T09:07:33;2.10;99.90
20041;DHT22;10181;48.072;9.884;2023-03-11T09:09:59;2.50;99.90
20041;DHT22;10181;48.072;9.884;2023-03-11T09:12:25;2.80;99.90
20041;DHT22;10181;48.072;9.884;2023-03-11T09:14:50;2.80;99.90
20041;DHT22;10181;48.072;9.884;2023-03-11T09:17:16;2.50;99.90
20041;DHT22;10181;48.072;9.884;2023-03-11T09:19:41;2.30;99.90
20041;DHT22;10181;48.072;9.884;2023-03-11T09:22:07;2.30;99.90
20041;DHT22;10181;48.072;9.884;2023-03-11T09:24:34;2.40;99.90
20041;DHT22;10181;48.072;9.884;2023-03-11T09:27:00;2.60;99.90
20041;DHT22;10181;48.072;9.884;2023-03-11T09:29:25;2.30;99.90
20041;DHT22;10181;48.072;9.884;2023-03-11T09:31:51;2.10;99.90
20041;DHT22;10181;48.072;9.884;2023-03-11T09:34:17;1.80;99.90
20041;DHT22;10181;48.072;9.884;2023-03-11T09:36:43;1.90;99.90
20041;DHT22;10181;48.072;9.884;2023-03-11T09:39:09;2.20;99.90
20041;DHT22;10181;48.072;9.884;2023-03-11T09:47:01;2.40;99.90
20041;DHT22;10181;48.072;9.884;2023-03-11T09:52:43;2.30;99.90
20041;DHT22;10181;48.072;9.884;2023-03-11T09:55:43;2.10;99.90
20041;DHT22;10181;48.072;9.884;2023-03-11T10:03:40;1.80;99.90
20041;DHT22;10181;48.072;9.884;2023-03-11T10:08:46;1.70;99.90
20041;DHT22;10181;48.072;9.884;2023-03-11T10:11:42;1.70;99.90
20041;DHT22;10181;48.072;9.884;2023-03-11T10:14:24;1.60;99.90
20041;DHT22;10181;48.072;9.884;2023-03-11T10:19:44;1.50;99.90
20041;DHT22;10181;48.072;9.884;2023-03-11T10:24:49;1.50;99.90
20041;DHT22;10181;48.072;9.884;2023-03-11T10:27:24;1.70;99.90
20041;DHT22;10181;48.072;9.884;2023-03-11T10:30:02;1.80;99.90
20041;DHT22;10181;48.072;9.884;2023-03-11T10:33:04;1.90;99.90
20041;DHT22;10181;48.072;9.884;2023-03-11T10:35:45;2.00;99.90
20041;DHT22;10181;48.072;9.884;2023-03-11T10:38:32;2.00;99.90
20041;DHT22;10181;48.072;9.884;2023-03-11T10:41:04;2.20;99.90
20041;DHT22;10181;48.072;9.884;2023-03-11T10:43:36;2.30;99.90
20041;DHT22;10181;48.072;9.884;2023-03-11T10:46:22;2.50;99.90
20041;DHT22;10181;48.072;9.884;2023-03-11T10:48:48;2.70;99.90
20041;DHT22;10181;48.072;9.884;2023-03-11T10:51:23;2.60;99.90
20041;DHT22;10181;48.072;9.884;2023-03-11T10:53:55;2.70;99.90
20041;DHT22;10181;48.072;9.884;2023-03-11T10:56:31;2.70;99.90
20041;DHT22;10181;48.072;9.884;2023-03-11T10:58:58;2.60;99.90
20041;DHT22;10181;48.072;9.884;2023-03-11T11:01:24;2.60;99.90
20041;DHT22;10181;48.072;9.884;2023-03-11T11:03:53;2.60;99.90
20041;DHT22;10181;48.072;9.884;2023-03-11T11:06:27;2.60;99.90
20041;DHT22;10181;48.072;9.884;2023-03-11T11:09:15;2.60;99.90
20041;DHT22;10181;48.072;9.884;2023-03-11T11:11:42;2.60;99.90
20041;DHT22;10181;48.072;9.884;2023-03-11T11:14:23;2.70;99.90
20041;DHT22;10181;48.072;9.884;2023-03-11T11:16:50;2.70;99.90
20041;DHT22;10181;48.072;9.884;2023-03-11T11:19:17;2.70;99.90
20041;DHT22;10181;48.072;9.884;2023-03-11T11:21:48;2.80;99.90
20041;DHT22;10181;48.072;9.884;2023-03-11T11:24:23;2.80;99.90
20041;DHT22;10181;48.072;9.884;2023-03-11T11:29:39;3.00;99.90
20041;DHT22;10181;48.072;9.884;2023-03-11T11:34:40;3.10;99.90
20041;DHT22;10181;48.072;9.884;2023-03-11T11:37:11;3.20;99.90
20041;DHT22;10181;48.072;9.884;2023-03-11T11:40:00;3.40;99.90
20041;DHT22;10181;48.072;9.884;2023-03-11T11:42:34;3.60;99.90
20041;DHT22;10181;48.072;9.884;2023-03-11T11:45:13;3.60;99.90
20041;DHT22;10181;48.072;9.884;2023-03-11T11:47:43;3.80;99.90
20041;DHT22;10181;48.072;9.884;2023-03-11T11:50:32;4.10;99.90
20041;DHT22;10181;48.072;9.884;2023-03-11T11:53:23;4.20;99.90
20041;DHT22;10181;48.072;9.884;2023-03-11T11:55:51;4.50;99.90
20041;DHT22;10181;48.072;9.884;2023-03-11T11:58:18;5.00;99.90
20041;DHT22;10181;48.072;9.884;2023-03-11T12:01:15;5.40;99.90
20041;DHT22;10181;48.072;9.884;2023-03-11T12:11:46;5.80;96.90
20041;DHT22;10181;48.072;9.884;2023-03-11T12:14:20;6.10;99.90
20041;DHT22;10181;48.072;9.884;2023-03-11T12:16:55;6.30;99.90
20041;DHT22;10181;48.072;9.884;2023-03-11T12:22:07;6.70;99.90
20041;DHT22;10181;48.072;9.884;2023-03-11T12:27:35;6.50;95.20
20041;DHT22;10181;48.072;9.884;2023-03-11T12:30:22;6.80;96.60
20041;DHT22;10181;48.072;9.884;2023-03-11T12:32:51;7.90;99.90
20041;DHT22;10181;48.072;9.884;2023-03-11T12:38:20;8.60;93.00
20041;DHT22;10181;48.072;9.884;2023-03-11T12:40:57;8.20;92.00
20041;DHT22;10181;48.072;9.884;2023-03-11T12:46:08;8.80;92.50
20041;DHT22;10181;48.072;9.884;2023-03-11T12:53:57;8.30;92.30
20041;DHT22;10181;48.072;9.884;2023-03-11T12:56:39;7.70;90.30
20041;DHT22;10181;48.072;9.884;2023-03-11T13:11:28;8.40;93.00
20041;DHT22;10181;48.072;9.884;2023-03-11T13:16:41;8.40;82.90
20041;DHT22;10181;48.072;9.884;2023-03-11T13:21:55;7.20;85.50
20041;DHT22;10181;48.072;9.884;2023-03-11T13:29:52;6.90;91.20
20041;DHT22;10181;48.072;9.884;2023-03-11T13:38:03;7.70;91.30
20041;DHT22;10181;48.072;9.884;2023-03-11T13:40:37;7.60;93.90
20041;DHT22;10181;48.072;9.884;2023-03-11T13:45:50;7.00;91.60
20041;DHT22;10181;48.072;9.884;2023-03-11T13:48:29;7.20;99.90
20041;DHT22;10181;48.072;9.884;2023-03-11T13:51:00;8.20;99.90
20041;DHT22;10181;48.072;9.884;2023-03-11T13:53:32;8.70;99.90
20041;DHT22;10181;48.072;9.884;2023-03-11T13:55:59;8.90;94.10
20041;DHT22;10181;48.072;9.884;2023-03-11T13:58:26;8.90;97.10
20041;DHT22;10181;48.072;9.884;2023-03-11T14:01:00;8.90;95.80
20041;DHT22;10181;48.072;9.884;2023-03-11T14:03:31;9.10;91.50
20041;DHT22;10181;48.072;9.884;2023-03-11T14:06:04;8.80;82.10
20041;DHT22;10181;48.072;9.884;2023-03-11T14:08:33;8.50;82.30
20041;DHT22;10181;48.072;9.884;2023-03-11T14:13:28;7.90;82.90
20041;DHT22;10181;48.072;9.884;2023-03-11T14:18:47;7.30;83.00
20041;DHT22;10181;48.072;9.884;2023-03-11T14:21:21;7.10;83.50
20041;DHT22;10181;48.072;9.884;2023-03-11T14:23:52;6.90;85.70
20041;DHT22;10181;48.072;9.884;2023-03-11T14:26:23;6.70;86.90
20041;DHT22;10181;48.072;9.884;2023-03-11T14:28:53;6.50;87.80
20041;DHT22;10181;48.072;9.884;2023-03-11T14:33:55;6.40;85.20
20041;DHT22;10181;48.072;9.884;2023-03-11T14:36:22;6.30;86.70
20041;DHT22;10181;48.072;9.884;2023-03-11T14:38:48;6.30;84.70
20041;DHT22;10181;48.072;9.884;2023-03-11T14:41:14;6.20;86.00
20041;DHT22;10181;48.072;9.884;2023-03-11T14:43:43;6.30;85.60
20041;DHT22;10181;48.072;9.884;2023-03-11T14:46:17;6.30;83.90
20041;DHT22;10181;48.072;9.884;2023-03-11T14:48:44;6.40;90.30
20041;DHT22;10181;48.072;9.884;2023-03-11T14:51:18;6.30;85.10
20041;DHT22;10181;48.072;9.884;2023-03-11T14:59:30;6.00;86.40
20041;DHT22;10181;48.072;9.884;2023-03-11T15:02:08;6.10;86.60
20041;DHT22;10181;48.072;9.884;2023-03-11T15:04:38;6.10;87.50
20041;DHT22;10181;48.072;9.884;2023-03-11T15:07:08;6.10;87.90
20041;DHT22;10181;48.072;9.884;2023-03-11T15:09:38;6.00;87.20
20041;DHT22;10181;48.072;9.884;2023-03-11T15:12:05;5.90;88.10
20041;DHT22;10181;48.072;9.884;2023-03-11T15:14:35;5.90;89.60
20041;DHT22;10181;48.072;9.884;2023-03-11T15:17:22;5.90;87.60
20041;DHT22;10181;48.072;9.884;2023-03-11T15:19:53;5.90;88.00
20041;DHT22;10181;48.072;9.884;2023-03-11T15:22:38;5.90;86.70
20041;DHT22;10181;48.072;9.884;2023-03-11T15:25:15;5.90;88.20
20041;DHT22;10181;48.072;9.884;2023-03-11T15:27:41;5.90;92.60
20041;DHT22;10181;48.072;9.884;2023-03-11T15:30:18;6.00;93.50
20041;DHT22;10181;48.072;9.884;2023-03-11T15:32:45;6.00;93.90
20041;DHT22;10181;48.072;9.884;2023-03-11T15:35:20;5.90;90.10
20041;DHT22;10181;48.072;9.884;2023-03-11T15:37:47;5.80;88.00
20041;DHT22;10181;48.072;9.884;2023-03-11T15:40:23;5.60;89.30
20041;DHT22;10181;48.072;9.884;2023-03-11T15:45:40;5.50;92.50
20041;DHT22;10181;48.072;9.884;2023-03-11T15:48:07;5.50;90.70
20041;DHT22;10181;48.072;9.884;2023-03-11T15:50:34;5.40;91.40
20041;DHT22;10181;48.072;9.884;2023-03-11T15:52:59;5.50;91.80
20041;DHT22;10181;48.072;9.884;2023-03-11T15:55:26;5.40;90.90
20041;DHT22;10181;48.072;9.884;2023-03-11T15:58:02;5.40;91.60
20041;DHT22;10181;48.072;9.884;2023-03-11T16:00:29;5.30;91.70
20041;DHT22;10181;48.072;9.884;2023-03-11T16:02:55;5.30;90.90
20041;DHT22;10181;48.072;9.884;2023-03-11T16:05:22;5.30;91.10
20041;DHT22;10181;48.072;9.884;2023-03-11T16:07:48;5.20;91.80
20041;DHT22;10181;48.072;9.884;2023-03-11T16:10:16;5.20;91.50
20041;DHT22;10181;48.072;9.884;2023-03-11T16:12:42;5.20;90.90
20041;DHT22;10181;48.072;9.884;2023-03-11T16:17:44;5.20;90.40
20041;DHT22;10181;48.072;9.884;2023-03-11T16:20:10;5.10;91.20
20041;DHT22;10181;48.072;9.884;2023-03-11T16:22:36;5.10;91.60
20041;DHT22;10181;48.072;9.884;2023-03-11T16:25:03;5.10;93.30
20041;DHT22;10181;48.072;9.884;2023-03-11T16:27:29;5.20;93.50
20041;DHT22;10181;48.072;9.884;2023-03-11T16:29:55;5.10;91.50
20041;DHT22;10181;48.072;9.884;2023-03-11T16:32:20;5.10;91.30
20041;DHT22;10181;48.072;9.884;2023-03-11T16:34:46;5.00;91.30
20041;DHT22;10181;48.072;9.884;2023-03-11T16:37:15;5.00;93.00
20041;DHT22;10181;48.072;9.884;2023-03-11T16:39:41;5.00;93.30
20041;DHT22;10181;48.072;9.884;2023-03-11T16:42:07;5.00;93.70
20041;DHT22;10181;48.072;9.884;2023-03-11T16:44:33;4.90;93.40
20041;DHT22;10181;48.072;9.884;2023-03-11T16:46:59;4.80;92.80
20041;DHT22;10181;48.072;9.884;2023-03-11T16:49:24;4.80;93.70
20041;DHT22;10181;48.072;9.884;2023-03-11T16:51:50;4.70;94.40
20041;DHT22;10181;48.072;9.884;2023-03-11T16:54:15;4.70;94.80
20041;DHT22;10181;48.072;9.884;2023-03-11T16:56:41;4.70;94.80
20041;DHT22;10181;48.072;9.884;2023-03-11T16:59:07;4.60;94.50
20041;DHT22;10181;48.072;9.884;2023-03-11T17:01:33;4.60;95.20
20041;DHT22;10181;48.072;9.884;2023-03-11T17:04:05;4.60;95.40
20041;DHT22;10181;48.072;9.884;2023-03-11T17:06:31;4.60;94.50
20041;DHT22;10181;48.072;9.884;2023-03-11T17:08:57;4.50;92.70
20041;DHT22;10181;48.072;9.884;2023-03-11T17:11:23;4.50;93.90
20041;DHT22;10181;48.072;9.884;2023-03-11T17:13:53;4.40;98.00
20041;DHT22;10181;48.072;9.884;2023-03-11T17:16:19;4.40;99.90
20041;DHT22;10181;48.072;9.884;2023-03-11T17:18:44;4.30;99.90
20041;DHT22;10181;48.072;9.884;2023-03-11T17:21:13;4.30;99.90
20041;DHT22;10181;48.072;9.884;2023-03-11T17:23:39;4.20;99.90
20041;DHT22;10181;48.072;9.884;2023-03-11T17:26:10;4.10;99.90
20041;DHT22;10181;48.072;9.884;2023-03-11T17:28:36;4.00;99.90
20041;DHT22;10181;48.072;9.884;2023-03-11T17:31:02;4.00;99.90
20041;DHT22;10181;48.072;9.884;2023-03-11T17:33:28;3.90;99.90
20041;DHT22;10181;48.072;9.884;2023-03-11T17:36:05;3.90;99.90
20041;DHT22;10181;48.072;9.884;2023-03-11T17:38:31;3.90;99.90
20041;DHT22;10181;48.072;9.884;2023-03-11T17:40:57;3.80;99.90
20041;DHT22;10181;48.072;9.884;2023-03-11T17:43:23;3.80;99.90
20041;DHT22;10181;48.072;9.884;2023-03-11T17:45:49;3.80;99.90